sensor_id;sensor_type;location;lat;lon;timestamp;pressure;altitude;pressure_sealevel;temperature;humidity
77112;BME280;66064;50.226;14.344;2023-01-01T00:00:04;99656.59;;;12.06;72.28
77112;BME280;66064;50.226;14.344;2023-01-01T00:02:32;99681.53;;;12.14;72.01
77112;BME280;66064;50.226;14.344;2023-01-01T00:04:58;99681.56;;;12.17;72.04
77112;BME280;66064;50.226;14.344;2023-01-01T00:07:25;99678.00;;;12.13;72.71
77112;BME280;66064;50.226;14.344;2023-01-01T00:09:51;99661.06;;;12.08;72.25
77112;BME280;66064;50.226;14.344;2023-01-01T00:12:43;99647.69;;;12.01;72.18
77112;BME280;66064;50.226;14.344;2023-01-01T00:15:10;99637.84;;;11.92;71.93
77112;BME280;66064;50.226;14.344;2023-01-01T00:17:36;99670.84;;;12.11;72.08
77112;BME280;66064;50.226;14.344;2023-01-01T00:20:02;99661.91;;;12.03;71.74
77112;BME280;66064;50.226;14.344;2023-01-01T00:22:28;99676.19;;;12.11;71.92
77112;BME280;66064;50.226;14.344;2023-01-01T00:24:54;99658.25;;;11.88;72.52
77112;BME280;66064;50.226;14.344;2023-01-01T00:27:21;99672.56;;;12.00;72.92
77112;BME280;66064;50.226;14.344;2023-01-01T00:29:46;99670.69;;;11.86;72.92
77112;BME280;66064;50.226;14.344;2023-01-01T00:32:13;99659.97;;;11.77;72.68
77112;BME280;66064;50.226;14.344;2023-01-01T00:34:39;99682.25;;;11.88;72.73
77112;BME280;66064;50.226;14.344;2023-01-01T00:37:05;99683.13;;;11.81;73.13
77112;BME280;66064;50.226;14.344;2023-01-01T00:39:31;99674.94;;;11.63;73.52
77112;BME280;66064;50.226;14.344;2023-01-01T00:41:57;99679.38;;;11.61;73.78
77112;BME280;66064;50.226;14.344;2023-01-01T00:44:23;99678.47;;;11.61;74.28
77112;BME280;66064;50.226;14.344;2023-01-01T00:46:49;99660.63;;;11.49;73.98
77112;BME280;66064;50.226;14.344;2023-01-01T00:49:15;99670.50;;;11.62;73.95
77112;BME280;66064;50.226;14.344;2023-01-01T00:51:41;99670.50;;;11.62;73.33
77112;BME280;66064;50.226;14.344;2023-01-01T00:54:06;99669.63;;;11.69;73.59
77112;BME280;66064;50.226;14.344;2023-01-01T00:56:32;99659.81;;;11.62;73.39
77112;BME280;66064;50.226;14.344;2023-01-01T00:58:59;99678.53;;;11.71;73.58
77112;BME280;66064;50.226;14.344;2023-01-01T01:01:25;99658.09;;;11.66;72.20
77112;BME280;66064;50.226;14.344;2023-01-01T01:03:51;99676.84;;;11.76;72.76
77112;BME280;66064;50.226;14.344;2023-01-01T01:06:17;99676.75;;;11.72;72.92
77112;BME280;66064;50.226;14.344;2023-01-01T01:08:45;99682.97;;;11.71;73.00
77112;BME280;66064;50.226;14.344;2023-01-01T01:11:16;99685.53;;;11.57;73.31
77112;BME280;66064;50.226;14.344;2023-01-01T01:13:44;99668.59;;;11.47;73.62
77112;BME280;66064;50.226;14.344;2023-01-01T01:16:13;99661.41;;;11.39;73.80
77112;BME280;66064;50.226;14.344;2023-01-01T01:18:39;99688.97;;;11.42;74.10
77112;BME280;66064;50.226;14.344;2023-01-01T01:21:05;99698.66;;;11.33;75.14
77112;BME280;66064;50.226;14.344;2023-01-01T01:23:34;99701.31;;;11.33;74.06
77112;BME280;66064;50.226;14.344;2023-01-01T01:26:14;99691.63;;;11.41;72.84
77112;BME280;66064;50.226;14.344;2023-01-01T01:28:41;99699.84;;;11.65;72.37
77112;BME280;66064;50.226;14.344;2023-01-01T01:31:08;99706.88;;;11.57;72.20
77112;BME280;66064;50.226;14.344;2023-01-01T01:33:34;99709.50;;;11.51;73.67
77112;BME280;66064;50.226;14.344;2023-01-01T01:36:02;99718.22;;;11.35;73.52
77112;BME280;66064;50.226;14.344;2023-01-01T01:38:28;99722.47;;;11.16;74.27
77112;BME280;66064;50.226;14.344;2023-01-01T01:40:55;99719.50;;;10.87;75.15
77112;BME280;66064;50.226;14.344;2023-01-01T01:46:03;99710.34;;;10.64;77.15
77112;BME280;66064;50.226;14.344;2023-01-01T01:48:37;99723.81;;;10.77;76.52
77112;BME280;66064;50.226;14.344;2023-01-01T01:51:04;99717.72;;;10.86;76.20
77112;BME280;66064;50.226;14.344;2023-01-01T01:53:33;99718.78;;;11.02;75.46
77112;BME280;66064;50.226;14.344;2023-01-01T01:56:03;99724.41;;;11.31;73.50
77112;BME280;66064;50.226;14.344;2023-01-01T01:58:31;99717.22;;;11.25;72.79
77112;BME280;66064;50.226;14.344;2023-01-01T02:00:58;99728.78;;;11.26;73.14
77112;BME280;66064;50.226;14.344;2023-01-01T02:03:37;99726.06;;;11.19;72.54
77112;BME280;66064;50.226;14.344;2023-01-01T02:06:05;99724.84;;;10.92;74.46
77112;BME280;66064;50.226;14.344;2023-01-01T02:08:32;99719.25;;;10.67;75.17
77112;BME280;66064;50.226;14.344;2023-01-01T02:10:58;99732.34;;;10.50;75.75
77112;BME280;66064;50.226;14.344;2023-01-01T02:13:24;99733.97;;;10.41;75.92
77112;BME280;66064;50.226;14.344;2023-01-01T02:21:29;99750.91;;;9.89;77.83
77112;BME280;66064;50.226;14.344;2023-01-01T02:24:14;99744.63;;;9.83;78.24
77112;BME280;66064;50.226;14.344;2023-01-01T02:26:46;99753.41;;;9.79;78.44
77112;BME280;66064;50.226;14.344;2023-01-01T02:32:01;99742.97;;;9.92;76.80
77112;BME280;66064;50.226;14.344;2023-01-01T02:34:35;99754.88;;;10.16;75.58
77112;BME280;66064;50.226;14.344;2023-01-01T02:37:05;99741.88;;;10.33;73.96
77112;BME280;66064;50.226;14.344;2023-01-01T02:39:35;99755.13;;;10.30;74.45
77112;BME280;66064;50.226;14.344;2023-01-01T02:42:04;99752.19;;;10.15;74.74
77112;BME280;66064;50.226;14.344;2023-01-01T02:44:34;99738.78;;;10.07;75.12
77112;BME280;66064;50.226;14.344;2023-01-01T02:47:17;99757.78;;;10.32;73.89
77112;BME280;66064;50.226;14.344;2023-01-01T02:49:52;99749.97;;;10.44;73.78
77112;BME280;66064;50.226;14.344;2023-01-01T02:52:40;99722.28;;;10.28;74.00
77112;BME280;66064;50.226;14.344;2023-01-01T02:55:23;99738.53;;;10.49;73.28
77112;BME280;66064;50.226;14.344;2023-01-01T02:58:11;99740.41;;;10.55;73.40
77112;BME280;66064;50.226;14.344;2023-01-01T03:01:18;99745.91;;;10.69;72.06
77112;BME280;66064;50.226;14.344;2023-01-01T03:04:09;99735.00;;;10.50;72.47
77112;BME280;66064;50.226;14.344;2023-01-01T03:09:24;99730.16;;;10.21;74.42
77112;BME280;66064;50.226;14.344;2023-01-01T03:17:38;99732.03;;;10.28;72.99
77112;BME280;66064;50.226;14.344;2023-01-01T03:20:19;99723.31;;;10.41;72.28
77112;BME280;66064;50.226;14.344;2023-01-01T03:22:50;99749.59;;;10.81;70.53
77112;BME280;66064;50.226;14.344;2023-01-01T03:25:27;99740.06;;;11.00;70.43
77112;BME280;66064;50.226;14.344;2023-01-01T03:28:01;99741.81;;;11.00;69.85
77112;BME280;66064;50.226;14.344;2023-01-01T03:30:30;99741.75;;;10.94;69.98
77112;BME280;66064;50.226;14.344;2023-01-01T03:33:03;99721.25;;;10.88;71.23
77112;BME280;66064;50.226;14.344;2023-01-01T03:35:56;99728.34;;;10.86;70.90
77112;BME280;66064;50.226;14.344;2023-01-01T03:38:34;99715.91;;;10.85;70.45
77112;BME280;66064;50.226;14.344;2023-01-01T03:41:05;99726.53;;;10.82;70.39
77112;BME280;66064;50.226;14.344;2023-01-01T03:43:48;99725.28;;;10.52;71.79
77112;BME280;66064;50.226;14.344;2023-01-01T03:46:21;99728.63;;;10.38;73.21
77112;BME280;66064;50.226;14.344;2023-01-01T03:48:49;99737.91;;;10.72;71.51
77112;BME280;66064;50.226;14.344;2023-01-01T03:53:53;99731.56;;;11.35;68.32
77112;BME280;66064;50.226;14.344;2023-01-01T03:56:38;99735.88;;;11.27;68.79
77112;BME280;66064;50.226;14.344;2023-01-01T03:59:21;99724.91;;;10.96;69.35
77112;BME280;66064;50.226;14.344;2023-01-01T04:01:52;99731.03;;;10.89;69.96
77112;BME280;66064;50.226;14.344;2023-01-01T04:04:22;99727.75;;;11.13;69.05
77112;BME280;66064;50.226;14.344;2023-01-01T04:06:49;99725.88;;;11.01;69.23
77112;BME280;66064;50.226;14.344;2023-01-01T04:09:17;99734.66;;;10.96;69.83
77112;BME280;66064;50.226;14.344;2023-01-01T04:11:46;99738.06;;;10.82;70.54
77112;BME280;66064;50.226;14.344;2023-01-01T04:16:56;99728.25;;;10.15;73.71
77112;BME280;66064;50.226;14.344;2023-01-01T04:19:22;99738.78;;;10.09;73.54
77112;BME280;66064;50.226;14.344;2023-01-01T04:21:48;99743.13;;;10.01;74.72
77112;BME280;66064;50.226;14.344;2023-01-01T04:24:14;99731.16;;;9.73;75.43
77112;BME280;66064;50.226;14.344;2023-01-01T04:26:40;99749.50;;;9.56;75.90
77112;BME280;66064;50.226;14.344;2023-01-01T04:29:06;99741.16;;;9.88;74.51
77112;BME280;66064;50.226;14.344;2023-01-01T04:31:36;99750.94;;;9.90;75.03
77112;BME280;66064;50.226;14.344;2023-01-01T04:34:02;99733.41;;;10.03;73.78
77112;BME280;66064;50.226;14.344;2023-01-01T04:36:28;99749.94;;;10.41;72.28
77112;BME280;66064;50.226;14.344;2023-01-01T04:38:54;99735.00;;;10.50;71.66
77112;BME280;66064;50.226;14.344;2023-01-01T04:41:20;99736.19;;;10.74;70.53
77112;BME280;66064;50.226;14.344;2023-01-01T04:43:46;99732.69;;;10.78;70.08
77112;BME280;66064;50.226;14.344;2023-01-01T04:46:16;99738.84;;;10.74;70.67
77112;BME280;66064;50.226;14.344;2023-01-01T04:48:43;99740.75;;;10.84;69.36
77112;BME280;66064;50.226;14.344;2023-01-01T04:51:10;99735.34;;;10.78;69.49
77112;BME280;66064;50.226;14.344;2023-01-01T04:53:37;99725.38;;;10.62;69.75
77112;BME280;66064;50.226;14.344;2023-01-01T04:56:08;99744.09;;;10.68;70.10
77112;BME280;66064;50.226;14.344;2023-01-01T04:58:36;99736.69;;;10.45;70.79
77112;BME280;66064;50.226;14.344;2023-01-01T05:01:02;99745.69;;;10.54;70.11
77112;BME280;66064;50.226;14.344;2023-01-01T05:03:29;99738.41;;;10.40;70.98
77112;BME280;66064;50.226;14.344;2023-01-01T05:06:05;99751.78;;;10.46;71.26
77112;BME280;66064;50.226;14.344;2023-01-01T05:08:32;99755.88;;;10.20;72.59
77112;BME280;66064;50.226;14.344;2023-01-01T05:11:03;99760.88;;;10.02;73.15
77112;BME280;66064;50.226;14.344;2023-01-01T05:13:29;99748.75;;;10.19;71.65
77112;BME280;66064;50.226;14.344;2023-01-01T05:15:56;99757.00;;;10.40;71.48
77112;BME280;66064;50.226;14.344;2023-01-01T05:18:22;99750.16;;;10.58;70.63
77112;BME280;66064;50.226;14.344;2023-01-01T05:20:48;99759.88;;;10.52;71.04
77112;BME280;66064;50.226;14.344;2023-01-01T05:23:17;99766.50;;;10.20;72.58
77112;BME280;66064;50.226;14.344;2023-01-01T05:25:43;99771.50;;;10.02;73.57
77112;BME280;66064;50.226;14.344;2023-01-01T05:28:08;99777.13;;;9.67;75.64
77112;BME280;66064;50.226;14.344;2023-01-01T05:30:38;99773.31;;;9.52;75.73
77112;BME280;66064;50.226;14.344;2023-01-01T05:33:04;99788.03;;;9.34;75.88
77112;BME280;66064;50.226;14.344;2023-01-01T05:35:31;99783.97;;;9.06;76.95
77112;BME280;66064;50.226;14.344;2023-01-01T05:37:56;99766.47;;;8.72;77.64
77112;BME280;66064;50.226;14.344;2023-01-01T05:40:23;99795.72;;;8.77;78.24
77112;BME280;66064;50.226;14.344;2023-01-01T05:42:48;99805.13;;;8.61;79.62
77112;BME280;66064;50.226;14.344;2023-01-01T05:45:14;99801.50;;;8.56;80.00
77112;BME280;66064;50.226;14.344;2023-01-01T05:47:40;99778.03;;;8.35;80.45
77112;BME280;66064;50.226;14.344;2023-01-01T05:50:07;99775.34;;;8.34;81.03
77112;BME280;66064;50.226;14.344;2023-01-01T05:52:33;99798.72;;;8.52;80.68
77112;BME280;66064;50.226;14.344;2023-01-01T05:54:59;99783.22;;;8.70;80.11
77112;BME280;66064;50.226;14.344;2023-01-01T05:57:27;99784.56;;;8.92;78.78
77112;BME280;66064;50.226;14.344;2023-01-01T05:59:53;99784.06;;;9.12;77.60
77112;BME280;66064;50.226;14.344;2023-01-01T06:02:19;99810.91;;;9.28;77.10
77112;BME280;66064;50.226;14.344;2023-01-01T06:04:45;99802.84;;;9.68;75.15
77112;BME280;66064;50.226;14.344;2023-01-01T06:07:11;99819.75;;;9.73;75.50
77112;BME280;66064;50.226;14.344;2023-01-01T06:09:37;99800.09;;;9.64;75.30
77112;BME280;66064;50.226;14.344;2023-01-01T06:12:03;99796.91;;;9.85;74.26
77112;BME280;66064;50.226;14.344;2023-01-01T06:14:30;99803.59;;;10.14;72.46
77112;BME280;66064;50.226;14.344;2023-01-01T06:16:56;99822.13;;;10.09;72.97
77112;BME280;66064;50.226;14.344;2023-01-01T06:19:22;99823.69;;;9.97;73.51
77112;BME280;66064;50.226;14.344;2023-01-01T06:21:47;99831.53;;;9.88;73.49
77112;BME280;66064;50.226;14.344;2023-01-01T06:24:14;99844.75;;;9.85;73.73
77112;BME280;66064;50.226;14.344;2023-01-01T06:26:40;99843.69;;;9.73;74.09
77112;BME280;66064;50.226;14.344;2023-01-01T06:29:06;99845.97;;;9.54;75.41
77112;BME280;66064;50.226;14.344;2023-01-01T06:31:32;99850.16;;;9.41;75.78
77112;BME280;66064;50.226;14.344;2023-01-01T06:33:58;99843.78;;;9.33;76.40
77112;BME280;66064;50.226;14.344;2023-01-01T06:36:25;99855.09;;;9.23;76.23
77112;BME280;66064;50.226;14.344;2023-01-01T06:38:54;99859.47;;;9.21;76.67
77112;BME280;66064;50.226;14.344;2023-01-01T06:41:25;99842.16;;;8.97;76.66
77112;BME280;66064;50.226;14.344;2023-01-01T06:43:53;99859.63;;;8.86;77.93
77112;BME280;66064;50.226;14.344;2023-01-01T06:46:30;99853.03;;;9.09;76.94
77112;BME280;66064;50.226;14.344;2023-01-01T06:48:59;99860.44;;;9.24;76.30
77112;BME280;66064;50.226;14.344;2023-01-01T06:51:28;99871.81;;;9.19;76.75
77112;BME280;66064;50.226;14.344;2023-01-01T06:53:58;99868.06;;;9.51;75.96
77112;BME280;66064;50.226;14.344;2023-01-01T06:56:24;99865.59;;;9.62;75.44
77112;BME280;66064;50.226;14.344;2023-01-01T06:58:50;99862.34;;;9.78;74.94
77112;BME280;66064;50.226;14.344;2023-01-01T07:01:18;99876.31;;;10.16;73.34
77112;BME280;66064;50.226;14.344;2023-01-01T07:03:50;99869.59;;;10.36;73.03
77112;BME280;66064;50.226;14.344;2023-01-01T07:06:16;99874.94;;;10.36;72.72
77112;BME280;66064;50.226;14.344;2023-01-01T07:08:42;99862.44;;;10.32;72.37
77112;BME280;66064;50.226;14.344;2023-01-01T07:11:08;99874.19;;;10.46;72.21
77112;BME280;66064;50.226;14.344;2023-01-01T07:13:34;99844.25;;;10.61;70.96
77112;BME280;66064;50.226;14.344;2023-01-01T07:16:00;99863.69;;;10.57;71.20
77112;BME280;66064;50.226;14.344;2023-01-01T07:18:27;99856.34;;;10.41;71.69
77112;BME280;66064;50.226;14.344;2023-01-01T07:20:57;99860.66;;;10.31;72.65
77112;BME280;66064;50.226;14.344;2023-01-01T07:23:25;99863.94;;;10.18;73.08
77112;BME280;66064;50.226;14.344;2023-01-01T07:25:52;99863.94;;;10.18;73.26
77112;BME280;66064;50.226;14.344;2023-01-01T07:28:19;99861.44;;;10.26;72.72
77112;BME280;66064;50.226;14.344;2023-01-01T07:30:45;99874.81;;;10.30;72.71
77112;BME280;66064;50.226;14.344;2023-01-01T07:33:16;99875.75;;;10.34;72.72
77112;BME280;66064;50.226;14.344;2023-01-01T07:35:43;99882.28;;;10.56;72.01
77112;BME280;66064;50.226;14.344;2023-01-01T07:38:10;99881.72;;;10.75;71.22
77112;BME280;66064;50.226;14.344;2023-01-01T07:40:37;99883.06;;;11.07;69.98
77112;BME280;66064;50.226;14.344;2023-01-01T07:43:03;99883.19;;;11.16;69.09
77112;BME280;66064;50.226;14.344;2023-01-01T07:45:29;99889.84;;;11.50;67.67
77112;BME280;66064;50.226;14.344;2023-01-01T07:47:57;99905.25;;;11.77;68.02
77112;BME280;66064;50.226;14.344;2023-01-01T07:50:25;99903.66;;;11.95;66.77
77112;BME280;66064;50.226;14.344;2023-01-01T07:52:51;99896.69;;;12.09;65.95
77112;BME280;66064;50.226;14.344;2023-01-01T07:55:18;99920.88;;;12.25;65.51
77112;BME280;66064;50.226;14.344;2023-01-01T07:57:45;99925.50;;;12.46;65.03
77112;BME280;66064;50.226;14.344;2023-01-01T08:00:13;99921.09;;;12.53;64.89
77112;BME280;66064;50.226;14.344;2023-01-01T08:02:39;99902.50;;;12.67;64.02
77112;BME280;66064;50.226;14.344;2023-01-01T08:05:06;99924.06;;;12.91;63.23
77112;BME280;66064;50.226;14.344;2023-01-01T08:07:32;99917.00;;;13.04;63.04
77112;BME280;66064;50.226;14.344;2023-01-01T08:09:58;99917.13;;;13.20;62.58
77112;BME280;66064;50.226;14.344;2023-01-01T08:12:25;99923.41;;;13.31;62.19
77112;BME280;66064;50.226;14.344;2023-01-01T08:14:51;99914.56;;;13.39;62.22
77112;BME280;66064;50.226;14.344;2023-01-01T08:17:17;99929.81;;;13.64;61.29
77112;BME280;66064;50.226;14.344;2023-01-01T08:19:43;99920.06;;;13.77;60.75
77112;BME280;66064;50.226;14.344;2023-01-01T08:22:14;99919.22;;;13.94;60.54
77112;BME280;66064;50.226;14.344;2023-01-01T08:24:40;99920.09;;;14.01;60.69
77112;BME280;66064;50.226;14.344;2023-01-01T08:27:06;99911.19;;;14.13;60.11
77112;BME280;66064;50.226;14.344;2023-01-01T08:29:32;99920.19;;;14.28;59.79
77112;BME280;66064;50.226;14.344;2023-01-01T08:31:58;99928.22;;;14.39;59.61
77112;BME280;66064;50.226;14.344;2023-01-01T08:34:24;99907.72;;;14.52;59.04
77112;BME280;66064;50.226;14.344;2023-01-01T08:36:50;99888.94;;;14.62;57.06
77112;BME280;66064;50.226;14.344;2023-01-01T08:39:16;99906.75;;;15.09;56.79
77112;BME280;66064;50.226;14.344;2023-01-01T08:41:42;99913.75;;;15.59;54.90
77112;BME280;66064;50.226;14.344;2023-01-01T08:44:08;99896.09;;;16.63;52.44
77112;BME280;66064;50.226;14.344;2023-01-01T08:46:34;99911.91;;;16.97;50.66
77112;BME280;66064;50.226;14.344;2023-01-01T08:48:59;99897.91;;;17.44;49.78
77112;BME280;66064;50.226;14.344;2023-01-01T08:51:25;99905.84;;;17.55;48.89
77112;BME280;66064;50.226;14.344;2023-01-01T08:53:51;99902.72;;;17.91;48.03
77112;BME280;66064;50.226;14.344;2023-01-01T08:56:17;99910.03;;;17.83;48.50
77112;BME280;66064;50.226;14.344;2023-01-01T08:58:43;99910.19;;;18.32;47.89
77112;BME280;66064;50.226;14.344;2023-01-01T09:01:10;99918.19;;;18.37;46.76
77112;BME280;66064;50.226;14.344;2023-01-01T09:03:36;99910.19;;;18.32;47.26
77112;BME280;66064;50.226;14.344;2023-01-01T09:06:03;99921.09;;;18.25;47.08
77112;BME280;66064;50.226;14.344;2023-01-01T09:08:28;99926.63;;;18.72;46.24
77112;BME280;66064;50.226;14.344;2023-01-01T09:10:59;99926.84;;;18.60;46.10
77112;BME280;66064;50.226;14.344;2023-01-01T09:13:26;99929.97;;;17.67;48.56
77112;BME280;66064;50.226;14.344;2023-01-01T09:15:52;99931.44;;;17.91;48.21
77112;BME280;66064;50.226;14.344;2023-01-01T09:18:18;99943.09;;;17.93;48.26
77112;BME280;66064;50.226;14.344;2023-01-01T09:20:45;99950.81;;;17.45;49.60
77112;BME280;66064;50.226;14.344;2023-01-01T09:23:11;99949.38;;;17.12;51.00
77112;BME280;66064;50.226;14.344;2023-01-01T09:25:38;99944.47;;;16.63;51.19
77112;BME280;66064;50.226;14.344;2023-01-01T09:28:07;99950.84;;;16.41;52.07
77112;BME280;66064;50.226;14.344;2023-01-01T09:30:34;99958.22;;;16.12;52.53
77112;BME280;66064;50.226;14.344;2023-01-01T09:33:18;99952.13;;;15.76;54.85
77112;BME280;66064;50.226;14.344;2023-01-01T09:35:47;99936.13;;;15.58;54.56
77112;BME280;66064;50.226;14.344;2023-01-01T09:38:13;99932.53;;;15.48;54.61
77112;BME280;66064;50.226;14.344;2023-01-01T09:40:59;99958.47;;;15.45;55.28
77112;BME280;66064;50.226;14.344;2023-01-01T09:45:58;99969.22;;;15.38;55.11
77112;BME280;66064;50.226;14.344;2023-01-01T09:48:28;99971.91;;;15.34;55.13
77112;BME280;66064;50.226;14.344;2023-01-01T09:50:59;99973.75;;;15.18;55.86
77112;BME280;66064;50.226;14.344;2023-01-01T09:56:25;99953.19;;;15.11;55.84
77112;BME280;66064;50.226;14.344;2023-01-01T09:58:52;99951.44;;;15.01;56.13
77112;BME280;66064;50.226;14.344;2023-01-01T10:04:30;99968.38;;;15.18;56.96
77112;BME280;66064;50.226;14.344;2023-01-01T10:09:56;99921.06;;;15.05;55.26
77112;BME280;66064;50.226;14.344;2023-01-01T10:12:57;99946.00;;;15.28;55.69
77112;BME280;66064;50.226;14.344;2023-01-01T10:15:32;99948.72;;;15.18;55.46
77112;BME280;66064;50.226;14.344;2023-01-01T10:18:01;99946.03;;;15.10;55.86
77112;BME280;66064;50.226;14.344;2023-01-01T10:20:33;99959.41;;;15.27;55.47
77112;BME280;66064;50.226;14.344;2023-01-01T10:23:11;99953.19;;;15.23;55.86
77112;BME280;66064;50.226;14.344;2023-01-01T10:25:39;99950.47;;;15.40;55.36
77112;BME280;66064;50.226;14.344;2023-01-01T10:28:26;99974.53;;;15.66;54.50
77112;BME280;66064;50.226;14.344;2023-01-01T10:31:13;99973.66;;;15.64;54.14
77112;BME280;66064;50.226;14.344;2023-01-01T10:33:40;99952.16;;;15.71;53.78
77112;BME280;66064;50.226;14.344;2023-01-01T10:36:10;99961.94;;;15.89;53.43
77112;BME280;66064;50.226;14.344;2023-01-01T10:38:38;99965.53;;;15.85;53.35
77112;BME280;66064;50.226;14.344;2023-01-01T10:41:08;99980.72;;;15.89;53.21
77112;BME280;66064;50.226;14.344;2023-01-01T10:43:36;99974.47;;;15.78;54.22
77112;BME280;66064;50.226;14.344;2023-01-01T10:46:04;99967.31;;;15.77;53.23
77112;BME280;66064;50.226;14.344;2023-01-01T10:48:34;99953.03;;;15.75;53.86
77112;BME280;66064;50.226;14.344;2023-01-01T10:51:13;99958.34;;;15.87;53.72
77112;BME280;66064;50.226;14.344;2023-01-01T10:53:48;99978.84;;;16.02;53.23
77112;BME280;66064;50.226;14.344;2023-01-01T10:56:18;99944.06;;;15.79;53.13
77112;BME280;66064;50.226;14.344;2023-01-01T11:03:15;99973.47;;;16.03;52.57
77112;BME280;66064;50.226;14.344;2023-01-01T11:08:34;99962.78;;;15.96;52.88
77112;BME280;66064;50.226;14.344;2023-01-01T11:11:02;99957.47;;;15.84;53.08
77112;BME280;66064;50.226;14.344;2023-01-01T11:13:29;99963.59;;;16.08;52.82
77112;BME280;66064;50.226;14.344;2023-01-01T11:16:12;99940.41;;;15.92;52.43
77112;BME280;66064;50.226;14.344;2023-01-01T11:18:38;99952.81;;;16.15;52.25
77112;BME280;66064;50.226;14.344;2023-01-01T11:21:06;99958.28;;;16.02;51.66
77112;BME280;66064;50.226;14.344;2023-01-01T11:23:34;99966.28;;;16.08;51.99
77112;BME280;66064;50.226;14.344;2023-01-01T11:28:58;99980.53;;;16.21;52.51
77112;BME280;66064;50.226;14.344;2023-01-01T11:31:28;99976.13;;;16.09;52.28
77112;BME280;66064;50.226;14.344;2023-01-01T11:33:55;99952.00;;;16.03;52.26
77112;BME280;66064;50.226;14.344;2023-01-01T11:36:30;99969.91;;;16.04;52.95
77112;BME280;66064;50.226;14.344;2023-01-01T11:41:50;99959.28;;;15.75;53.39
77112;BME280;66064;50.226;14.344;2023-01-01T11:44:41;99957.53;;;15.68;53.48
77112;BME280;66064;50.226;14.344;2023-01-01T11:52:55;99968.28;;;15.67;53.65
77112;BME280;66064;50.226;14.344;2023-01-01T11:55:39;99966.44;;;15.77;53.74
77112;BME280;66064;50.226;14.344;2023-01-01T11:58:27;99970.88;;;15.82;53.65
77112;BME280;66064;50.226;14.344;2023-01-01T12:01:08;99944.13;;;15.62;53.85
77112;BME280;66064;50.226;14.344;2023-01-01T12:03:46;99948.59;;;15.71;53.34
77112;BME280;66064;50.226;14.344;2023-01-01T12:09:12;99978.88;;;15.94;53.00
77112;BME280;66064;50.226;14.344;2023-01-01T12:11:50;99965.47;;;15.94;52.85
77112;BME280;66064;50.226;14.344;2023-01-01T12:14:56;99978.88;;;15.93;53.73
77112;BME280;66064;50.226;14.344;2023-01-01T12:17:27;99973.56;;;15.88;53.94
77112;BME280;66064;50.226;14.344;2023-01-01T12:20:02;99957.44;;;15.90;53.67
77112;BME280;66064;50.226;14.344;2023-01-01T12:22:30;99945.78;;;15.94;53.33
77112;BME280;66064;50.226;14.344;2023-01-01T12:24:57;99944.78;;;16.13;53.16
77112;BME280;66064;50.226;14.344;2023-01-01T12:30:09;99955.19;;;16.66;51.64
77112;BME280;66064;50.226;14.344;2023-01-01T12:35:35;99955.03;;;16.86;50.96
77112;BME280;66064;50.226;14.344;2023-01-01T12:43:41;99954.84;;;17.04;50.30
77112;BME280;66064;50.226;14.344;2023-01-01T12:56:55;99929.03;;;18.34;46.81
77112;BME280;66064;50.226;14.344;2023-01-01T12:59:28;99953.25;;;18.35;46.89
77112;BME280;66064;50.226;14.344;2023-01-01T13:01:57;99945.41;;;18.18;47.60
77112;BME280;66064;50.226;14.344;2023-01-01T13:04:25;99931.69;;;17.71;48.38
77112;BME280;66064;50.226;14.344;2023-01-01T13:06:59;99919.75;;;17.18;49.68
77112;BME280;66064;50.226;14.344;2023-01-01T13:09:36;99914.75;;;16.78;51.46
77112;BME280;66064;50.226;14.344;2023-01-01T13:12:14;99923.03;;;16.53;52.14
77112;BME280;66064;50.226;14.344;2023-01-01T13:14:46;99943.75;;;16.37;52.70
77112;BME280;66064;50.226;14.344;2023-01-01T13:17:19;99938.50;;;16.19;53.15
77112;BME280;66064;50.226;14.344;2023-01-01T13:19:47;99926.09;;;15.93;54.16
77112;BME280;66064;50.226;14.344;2023-01-01T13:33:25;99915.59;;;15.29;56.18
77112;BME280;66064;50.226;14.344;2023-01-01T13:38:51;99906.72;;;15.12;57.00
77112;BME280;66064;50.226;14.344;2023-01-01T13:49:28;99891.59;;;14.81;58.54
77112;BME280;66064;50.226;14.344;2023-01-01T13:54:58;99896.09;;;14.56;60.91
77112;BME280;66064;50.226;14.344;2023-01-01T13:57:39;99905.94;;;14.60;61.64
77112;BME280;66064;50.226;14.344;2023-01-01T14:02:58;99901.34;;;13.96;64.82
77112;BME280;66064;50.226;14.344;2023-01-01T14:05:35;99910.28;;;13.92;62.51
77112;BME280;66064;50.226;14.344;2023-01-01T14:08:02;99904.03;;;13.78;65.59
77112;BME280;66064;50.226;14.344;2023-01-01T14:10:32;99918.25;;;13.63;67.27
77112;BME280;66064;50.226;14.344;2023-01-01T14:15:33;99908.38;;;13.53;65.98
77112;BME280;66064;50.226;14.344;2023-01-01T14:18:03;99911.94;;;13.45;65.54
77112;BME280;66064;50.226;14.344;2023-01-01T14:20:41;99904.72;;;13.31;64.59
77112;BME280;66064;50.226;14.344;2023-01-01T14:23:15;99917.22;;;13.36;66.58
77112;BME280;66064;50.226;14.344;2023-01-01T14:25:44;99918.00;;;13.18;66.91
77112;BME280;66064;50.226;14.344;2023-01-01T14:28:30;99920.69;;;13.19;64.82
77112;BME280;66064;50.226;14.344;2023-01-01T14:30:58;99918.84;;;13.09;67.16
77112;BME280;66064;50.226;14.344;2023-01-01T14:33:30;99921.34;;;12.86;68.15
77112;BME280;66064;50.226;14.344;2023-01-01T14:36:00;99915.94;;;12.74;66.18
77112;BME280;66064;50.226;14.344;2023-01-01T14:38:42;99916.81;;;12.75;67.66
77112;BME280;66064;50.226;14.344;2023-01-01T14:43:38;99919.88;;;13.29;62.96
77112;BME280;66064;50.226;14.344;2023-01-01T14:46:06;99902.03;;;13.31;62.90
77112;BME280;66064;50.226;14.344;2023-01-01T14:48:33;99926.25;;;13.59;61.96
77112;BME280;66064;50.226;14.344;2023-01-01T14:51:00;99919.09;;;13.65;61.59
77112;BME280;66064;50.226;14.344;2023-01-01T14:53:30;99920.97;;;13.77;60.63
77112;BME280;66064;50.226;14.344;2023-01-01T14:55:57;99926.19;;;13.50;62.82